Time;durP1;ratioP1;P1;durP2;ratioP2;P2;SDS_P1;SDS_P2;PMS_P1;PMS_P2;Temp;Humidity;BMP_temperature;BMP_pressure;BME280_temperature;BME280_humidity;BME280_pressure;Samples;Min_cycle;Max_cycle;Signal;HPM_P1;HPM_P2
2023/08/15 00:02:36;;;;;;;14.18;6.90;;;;;;;;;;10593423;27;20045;-75
2023/08/15 00:07:40;;;;;;;8.20;5.25;;;;;;;;;;10590229;27;20047;-76
2023/08/15 00:12:42;;;;;;;12.63;5.10;;;;;;;;;;10589501;27;20135;-76
2023/08/15 00:17:48;;;;;;;;;;;;;;;;;;10605226;27;20085;-76
2023/08/15 00:22:52;;;;;;;7.13;4.70;;;;;;;;;;10581769;27;20301;-75
2023/08/15 00:27:54;;;;;;;6.75;4.63;;;;;;;;;;10569329;27;20142;-76
2023/08/15 00:32:57;;;;;;;9.48;5.38;;;;;;;;;;10592143;27;20055;-76
2023/08/15 00:38:01;;;;;;;10.02;5.25;;;;;;;;;;10597226;27;20036;-77
2023/08/15 00:43:04;;;;;;;8.40;5.07;;;;;;;;;;10609163;27;20074;-76
2023/08/15 00:48:07;;;;;;;7.93;5.47;;;;;;;;;;10605818;27;20547;-75
2023/08/15 00:53:11;;;;;;;11.68;4.97;;;;;;;;;;10601182;27;20046;-76
2023/08/15 00:58:15;;;;;;;7.70;4.85;;;;;;;;;;10603485;27;20039;-76
2023/08/15 01:03:17;;;;;;;;;;;;;;;;;;10604891;27;20090;-77
2023/08/15 01:08:21;;;;;;;8.57;5.05;;;;;;;;;;10590049;27;19919;-76
2023/08/15 01:13:28;;;;;;;8.35;5.00;;;;;;;;;;10590886;27;20038;-76
2023/08/15 01:18:34;;;;;;;7.05;4.80;;;;;;;;;;10579431;27;20039;-76
2023/08/15 01:23:40;;;;;;;9.25;5.10;;;;;;;;;;10591249;27;20043;-76
2023/08/15 01:28:42;;;;;;;8.40;5.40;;;;;;;;;;10605640;27;20488;-76
2023/08/15 01:33:45;;;;;;;;;;;;;;;;;;10603277;27;20066;-76
2023/08/15 01:38:52;;;;;;;8.52;5.45;;;;;;;;;;10599002;27;19927;-75
2023/08/15 01:43:55;;;;;;;7.90;5.03;;;;;;;;;;10601551;27;20127;-76
2023/08/15 01:48:59;;;;;;;8.55;5.00;;;;;;;;;;10601702;27;20051;-76
2023/08/15 01:54:04;;;;;;;9.80;5.00;;;;;;;;;;10600211;27;20039;-76
2023/08/15 01:59:07;;;;;;;9.30;5.82;;;;;;;;;;10596288;27;20039;-77
2023/08/15 02:04:11;;;;;;;9.43;5.25;;;;;;;;;;10595373;27;20038;-77
2023/08/15 02:09:17;;;;;;;10.57;5.20;;;;;;;;;;10578667;27;20481;-76
2023/08/15 02:14:20;;;;;;;8.82;5.10;;;;;;;;;;10603167;27;20069;-76
2023/08/15 02:19:22;;;;;;;7.75;4.93;;;;;;;;;;10598819;27;20050;-76
2023/08/15 02:24:26;;;;;;;10.85;4.38;;;;;;;;;;10577011;27;20182;-76
2023/08/15 02:29:29;;;;;;;8.75;5.25;;;;;;;;;;10593663;27;20443;-76
2023/08/15 02:34:32;;;;;;;7.70;4.50;;;;;;;;;;10569604;27;20466;-76
2023/08/15 02:39:36;;;;;;;7.55;4.65;;;;;;;;;;10597573;27;20073;-76
2023/08/15 02:44:38;;;;;;;8.90;4.38;;;;;;;;;;10588136;27;20131;-76
2023/08/15 02:49:41;;;;;;;6.50;3.83;;;;;;;;;;10589664;27;20068;-75
2023/08/15 02:54:44;;;;;;;;;;;;;;;;;;10596034;27;20364;-75
2023/08/15 02:59:48;;;;;;;7.60;4.25;;;;;;;;;;10592065;27;19919;-74
2023/08/15 03:04:51;;;;;;;6.68;4.40;;;;;;;;;;10587617;27;20043;-75
2023/08/15 03:09:53;;;;;;;7.88;4.50;;;;;;;;;;10592146;27;20486;-77
2023/08/15 03:15:04;;;;;;;7.53;4.18;;;;;;;;;;10594592;27;20044;-76
2023/08/15 03:20:09;;;;;;;6.68;4.25;;;;;;;;;;10598382;27;20048;-77
2023/08/15 03:25:12;;;;;;;7.38;4.20;;;;;;;;;;10598574;27;20787;-77
2023/08/15 03:30:16;;;;;;;7.55;4.28;;;;;;;;;;10593828;27;20094;-77
2023/08/15 03:35:20;;;;;;;8.40;4.18;;;;;;;;;;10590887;27;20104;-77
2023/08/15 03:40:30;;;;;;;6.53;4.40;;;;;;;;;;10592770;27;20085;-77
2023/08/15 03:45:34;;;;;;;5.90;4.15;;;;;;;;;;10593628;27;20039;-77
2023/08/15 03:50:37;;;;;;;7.32;4.38;;;;;;;;;;10587306;27;20039;-77
2023/08/15 03:55:39;;;;;;;;;;;;;;;;;;10588378;27;20060;-77
2023/08/15 04:00:44;;;;;;;10.27;4.35;;;;;;;;;;10587006;27;19938;-77
2023/08/15 04:05:47;;;;;;;5.80;3.90;;;;;;;;;;10582953;27;20050;-77
2023/08/15 04:10:49;;;;;;;;;;;;;;;;;;10574394;27;20047;-77
2023/08/15 04:15:53;;;;;;;7.75;4.57;;;;;;;;;;10598143;27;19927;-78
2023/08/15 04:20:56;;;;;;;7.72;3.95;;;;;;;;;;10592850;27;20039;-78
2023/08/15 04:25:59;;;;;;;5.47;3.38;;;;;;;;;;10586297;27;20039;-77
2023/08/15 04:31:03;;;;;;;5.68;3.58;;;;;;;;;;10600099;27;20604;-77
2023/08/15 04:36:06;;;;;;;5.45;3.38;;;;;;;;;;10594929;27;20123;-77
2023/08/15 04:41:09;;;;;;;4.15;3.00;;;;;;;;;;10583289;27;20510;-77
2023/08/15 04:46:13;;;;;;;6.80;3.40;;;;;;;;;;10596146;27;20043;-77
2023/08/15 04:51:15;;;;;;;4.70;3.08;;;;;;;;;;10587142;27;20123;-77
2023/08/15 04:56:18;;;;;;;5.78;3.05;;;;;;;;;;10586563;27;20055;-77
2023/08/15 05:01:22;;;;;;;5.38;3.22;;;;;;;;;;10591178;27;20472;-77
2023/08/15 05:06:24;;;;;;;6.07;3.58;;;;;;;;;;10590287;27;20055;-77
2023/08/15 05:11:27;;;;;;;7.00;4.20;;;;;;;;;;10594730;27;20385;-77
2023/08/15 05:16:31;;;;;;;4.75;3.30;;;;;;;;;;10596023;27;20448;-77
2023/08/15 05:21:34;;;;;;;6.82;3.42;;;;;;;;;;10589198;27;20057;-77
2023/08/15 05:26:36;;;;;;;7.22;3.83;;;;;;;;;;10591628;27;20054;-77
2023/08/15 05:31:41;;;;;;;6.28;3.00;;;;;;;;;;10593537;27;20442;-77
2023/08/15 05:36:44;;;;;;;5.43;3.50;;;;;;;;;;10587360;27;20048;-77
2023/08/15 05:41:46;;;;;;;5.00;3.17;;;;;;;;;;10591150;27;20044;-77
2023/08/15 05:46:50;;;;;;;4.88;3.00;;;;;;;;;;10595102;27;20370;-77
2023/08/15 05:51:53;;;;;;;5.97;3.22;;;;;;;;;;10589378;27;20092;-77
2023/08/15 05:56:56;;;;;;;4.45;2.78;;;;;;;;;;10592769;27;20057;-78
2023/08/15 06:02:00;;;;;;;5.35;2.95;;;;;;;;;;10590939;27;20043;-77
2023/08/15 06:07:03;;;;;;;6.03;2.95;;;;;;;;;;10596225;27;20038;-77
2023/08/15 06:12:06;;;;;;;3.75;2.70;;;;;;;;;;10594166;27;20555;-75
2023/08/15 06:17:12;;;;;;;3.25;2.03;;;;;;;;;;10589355;27;20036;-77
2023/08/15 06:22:15;;;;;;;4.50;2.65;;;;;;;;;;10590206;27;20075;-75
2023/08/15 06:27:17;;;;;;;5.50;3.45;;;;;;;;;;10599662;27;20075;-77
2023/08/15 06:32:28;;;;;;;6.72;2.95;;;;;;;;;;10593258;27;20443;-77
2023/08/15 06:37:31;;;;;;;4.75;2.58;;;;;;;;;;10587367;27;20100;-74
2023/08/15 06:42:34;;;;;;;3.53;2.70;;;;;;;;;;10593361;27;20044;-77
2023/08/15 06:47:38;;;;;;;4.10;2.65;;;;;;;;;;10593007;27;20069;-77
2023/08/15 06:52:40;;;;;;;4.63;2.78;;;;;;;;;;10599180;27;20039;-77
2023/08/15 06:57:43;;;;;;;;;;;;;;;;;;10597210;27;20104;-77
2023/08/15 07:02:47;;;;;;;5.28;3.03;;;;;;;;;;10589559;27;19920;-77
2023/08/15 07:07:50;;;;;;;3.92;2.72;;;;;;;;;;10589568;27;20040;-77
2023/08/15 07:12:53;;;;;;;4.78;3.10;;;;;;;;;;10585578;27;20105;-77
2023/08/15 07:17:57;;;;;;;6.85;3.72;;;;;;;;;;10589072;27;20392;-77
2023/08/15 07:22:59;;;;;;;5.82;3.58;;;;;;;;;;10580874;27;20047;-77
2023/08/15 07:28:02;;;;;;;5.65;3.53;;;;;;;;;;10596097;27;20044;-77
2023/08/15 07:33:07;;;;;;;6.68;3.70;;;;;;;;;;10590617;27;20122;-75
2023/08/15 07:38:09;;;;;;;4.50;3.53;;;;;;;;;;10584119;27;20035;-75
2023/08/15 07:43:12;;;;;;;6.32;4.20;;;;;;;;;;10589365;27;20070;-75
2023/08/15 07:48:17;;;;;;;5.35;4.00;;;;;;;;;;10593820;27;20214;-75
2023/08/15 07:53:21;;;;;;;4.95;4.20;;;;;;;;;;10596863;27;20088;-75
2023/08/15 07:58:24;;;;;;;7.63;4.10;;;;;;;;;;10593148;27;20138;-76
2023/08/15 08:03:28;;;;;;;4.43;4.03;;;;;;;;;;10599988;27;20042;-76
2023/08/15 08:08:32;;;;;;;6.50;4.25;;;;;;;;;;10586305;27;20039;-77
2023/08/15 08:13:34;;;;;;;5.97;4.30;;;;;;;;;;10593415;27;20050;-75
2023/08/15 08:18:38;;;;;;;5.18;4.40;;;;;;;;;;10589572;27;20073;-76
2023/08/15 08:23:41;;;;;;;4.88;4.45;;;;;;;;;;10596431;27;20122;-77
2023/08/15 08:28:45;;;;;;;6.38;4.65;;;;;;;;;;10591585;27;20047;-77
2023/08/15 08:33:49;;;;;;;6.50;4.28;;;;;;;;;;10563352;27;20050;-77
2023/08/15 08:38:52;;;;;;;6.68;4.57;;;;;;;;;;10587034;27;20047;-76
2023/08/15 08:43:54;;;;;;;5.13;4.30;;;;;;;;;;10590838;27;20031;-77
2023/08/15 08:48:59;;;;;;;5.38;4.63;;;;;;;;;;10586547;27;20044;-77
2023/08/15 08:54:02;;;;;;;6.18;4.65;;;;;;;;;;10591821;27;20039;-77
2023/08/15 08:59:06;;;;;;;6.07;4.82;;;;;;;;;;10603966;27;20059;-77
2023/08/15 09:04:10;;;;;;;5.40;4.90;;;;;;;;;;10592234;27;20521;-77
2023/08/15 09:09:17;;;;;;;6.50;4.70;;;;;;;;;;10600275;27;20032;-77
2023/08/15 09:14:20;;;;;;;6.47;4.82;;;;;;;;;;10586800;27;20390;-77
2023/08/15 09:19:24;;;;;;;5.40;4.85;;;;;;;;;;10598572;27;20104;-77
2023/08/15 09:24:28;;;;;;;7.00;5.20;;;;;;;;;;10591583;27;20035;-78
2023/08/15 09:29:30;;;;;;;6.00;5.20;;;;;;;;;;10600414;27;20114;-78
2023/08/15 09:34:34;;;;;;;6.47;5.05;;;;;;;;;;10579128;27;20043;-78
2023/08/15 09:39:37;;;;;;;6.38;5.75;;;;;;;;;;10591637;27;20035;-78
2023/08/15 09:44:40;;;;;;;6.00;5.00;;;;;;;;;;10585435;27;20130;-77
2023/08/15 09:49:44;;;;;;;6.65;6.05;;;;;;;;;;10581628;27;20035;-77
2023/08/15 09:54:47;;;;;;;9.70;5.53;;;;;;;;;;10594213;27;20043;-78
2023/08/15 09:59:50;;;;;;;6.20;5.60;;;;;;;;;;10588489;27;20066;-78
2023/08/15 10:04:58;;;;;;;6.50;5.90;;;;;;;;;;10596506;27;20039;-78
2023/08/15 10:10:03;;;;;;;9.02;6.00;;;;;;;;;;10596538;27;20058;-78
2023/08/15 10:15:07;;;;;;;6.20;5.60;;;;;;;;;;10594279;27;20075;-77
2023/08/15 10:20:16;;;;;;;6.07;5.57;;;;;;;;;;10589174;27;20039;-78
2023/08/15 10:25:19;;;;;;;6.35;5.85;;;;;;;;;;10597102;27;20529;-79
2023/08/15 10:30:29;;;;;;;7.13;5.85;;;;;;;;;;10599411;27;20039;-78
2023/08/15 10:35:34;;;;;;;5.78;5.25;;;;;;;;;;10589386;27;20468;-78
2023/08/15 10:40:39;;;;;;;6.10;5.60;;;;;;;;;;10592837;27;20051;-78
2023/08/15 10:45:44;;;;;;;8.02;5.57;;;;;;;;;;10598968;27;20043;-78
2023/08/15 10:50:48;;;;;;;5.63;5.10;;;;;;;;;;10589245;27;20054;-78
2023/08/15 10:55:53;;;;;;;7.47;5.90;;;;;;;;;;10589110;27;20039;-79
2023/08/15 11:00:56;;;;;;;6.57;5.43;;;;;;;;;;10595498;27;20039;-78
2023/08/15 11:06:13;;;;;;;7.05;5.80;;;;;;;;;;10588306;27;20036;-78
2023/08/15 11:11:16;;;;;;;6.00;5.40;;;;;;;;;;10584871;27;20364;-77
2023/08/15 11:16:20;;;;;;;7.18;6.03;;;;;;;;;;10585753;27;20123;-78
2023/08/15 11:21:27;;;;;;;6.43;5.93;;;;;;;;;;10576336;27;20490;-77
2023/08/15 11:26:30;;;;;;;6.07;5.20;;;;;;;;;;10591045;27;20036;-77
2023/08/15 11:31:33;;;;;;;6.93;5.35;;;;;;;;;;10590987;27;20656;-78
2023/08/15 11:36:38;;;;;;;5.47;4.60;;;;;;;;;;10580564;27;20035;-78
2023/08/15 11:41:41;;;;;;;5.70;5.07;;;;;;;;;;10598847;27;20048;-77
2023/08/15 11:46:44;;;;;;;6.82;5.80;;;;;;;;;;10600657;27;20119;-76
2023/08/15 11:52:03;;;;;;;7.18;5.35;;;;;;;;;;10585310;27;20411;-77
2023/08/15 11:57:06;;;;;;;5.47;4.97;;;;;;;;;;10594835;27;20035;-77
2023/08/15 12:02:11;;;;;;;6.07;4.95;;;;;;;;;;10585367;27;20031;-77
2023/08/15 12:07:17;;;;;;;7.30;5.20;;;;;;;;;;10583600;27;20410;-76
2023/08/15 12:12:20;;;;;;;6.25;5.20;;;;;;;;;;10585451;27;20036;-78
2023/08/15 12:17:23;;;;;;;5.15;4.55;;;;;;;;;;10589788;27;20412;-79
2023/08/15 12:22:28;;;;;;;6.15;3.67;;;;;;;;;;10595942;27;20385;-77
2023/08/15 12:27:32;;;;;;;5.85;3.72;;;;;;;;;;10585450;27;20454;-77
2023/08/15 12:32:35;;;;;;;7.28;3.80;;;;;;;;;;10593122;27;20066;-78
2023/08/15 12:37:39;;;;;;;8.10;4.13;;;;;;;;;;10597505;27;20051;-78
2023/08/15 12:42:42;;;;;;;6.85;3.95;;;;;;;;;;10599632;27;20107;-77
2023/08/15 12:47:45;;;;;;;9.25;3.05;;;;;;;;;;10603273;27;20043;-76
2023/08/15 12:52:49;;;;;;;9.05;3.00;;;;;;;;;;10598445;27;20112;-77
2023/08/15 12:57:54;;;;;;;7.68;3.50;;;;;;;;;;10598368;27;20130;-77
2023/08/15 13:02:57;;;;;;;5.80;3.22;;;;;;;;;;10597756;27;20567;-77
2023/08/15 13:08:01;;;;;;;9.10;2.95;;;;;;;;;;10593179;27;20108;-77
2023/08/15 13:13:04;;;;;;;7.20;3.15;;;;;;;;;;10592274;27;20047;-80
2023/08/15 13:18:07;;;;;;;9.10;3.72;;;;;;;;;;10595097;27;20444;-81
2023/08/15 13:23:11;;;;;;;6.75;4.22;;;;;;;;;;10598592;27;20035;-79
2023/08/15 13:28:14;;;;;;;8.75;4.43;;;;;;;;;;10597655;27;20455;-77
2023/08/15 13:33:17;;;;;;;7.15;4.72;;;;;;;;;;10598648;27;20075;-78
2023/08/15 13:38:21;;;;;;;13.10;5.72;;;;;;;;;;10590851;27;20036;-80
2023/08/15 13:43:25;;;;;;;7.18;4.50;;;;;;;;;;10582817;27;20087;-77
2023/08/15 13:48:27;;;;;;;9.27;4.60;;;;;;;;;;10588097;27;20372;-77
2023/08/15 13:53:32;;;;;;;7.45;4.13;;;;;;;;;;10590399;27;20039;-78
2023/08/15 13:58:34;;;;;;;7.40;4.13;;;;;;;;;;10591720;27;20035;-77
2023/08/15 14:03:37;;;;;;;12.15;4.80;;;;;;;;;;10596150;27;20047;-74
2023/08/15 14:08:43;;;;;;;8.48;4.53;;;;;;;;;;10587801;27;20438;-78
2023/08/15 14:13:45;;;;;;;10.02;4.53;;;;;;;;;;10593654;27;20043;-77
2023/08/15 14:18:48;;;;;;;9.20;4.82;;;;;;;;;;10595064;27;20122;-79
2023/08/15 14:23:52;;;;;;;9.93;4.93;;;;;;;;;;10602126;27;21594;-78
2023/08/15 14:28:55;;;;;;;9.70;4.95;;;;;;;;;;10601875;27;20484;-77
2023/08/15 14:33:57;;;;;;;8.52;4.43;;;;;;;;;;10590509;27;20134;-78
2023/08/15 14:39:01;;;;;;;7.55;3.67;;;;;;;;;;10591881;27;20046;-78
2023/08/15 14:44:04;;;;;;;5.35;2.70;;;;;;;;;;10589786;27;20122;-78
2023/08/15 14:49:07;;;;;;;7.25;4.13;;;;;;;;;;10593459;27;20194;-76
2023/08/15 14:54:14;;;;;;;6.10;2.70;;;;;;;;;;10590954;27;20046;-78
2023/08/15 14:59:17;;;;;;;9.57;4.05;;;;;;;;;;10592648;27;20057;-77
2023/08/15 15:04:20;;;;;;;4.82;2.72;;;;;;;;;;10584696;27;20507;-78
2023/08/15 15:09:24;;;;;;;9.98;4.00;;;;;;;;;;10597050;27;20062;-77
2023/08/15 15:14:26;;;;;;;6.57;3.30;;;;;;;;;;10587091;27;20039;-78
2023/08/15 15:19:29;;;;;;;4.82;3.05;;;;;;;;;;10588985;27;20064;-78
2023/08/15 15:24:33;;;;;;;8.48;3.90;;;;;;;;;;10590151;27;20031;-78
2023/08/15 15:29:36;;;;;;;6.75;4.03;;;;;;;;;;10597625;27;20043;-81
2023/08/15 15:34:39;;;;;;;11.30;5.50;;;;;;;;;;10594544;27;20042;-86
2023/08/15 15:39:43;;;;;;;10.98;4.93;;;;;;;;;;10596684;27;20126;-87
2023/08/15 15:44:45;;;;;;;16.13;7.53;;;;;;;;;;10595522;27;20320;-87
2023/08/15 15:49:48;;;;;;;8.02;4.32;;;;;;;;;;10588831;27;20127;-88
2023/08/15 15:54:52;;;;;;;11.82;5.60;;;;;;;;;;10595580;27;21183;-86
2023/08/15 15:59:55;;;;;;;13.13;5.78;;;;;;;;;;10595943;27;20122;-87
2023/08/15 16:04:57;;;;;;;9.15;5.00;;;;;;;;;;10593501;27;20039;-87
2023/08/15 16:10:01;;;;;;;;;;;;;;;;;;10595969;27;20031;-86
2023/08/15 16:15:09;;;;;;;11.02;5.90;;;;;;;;;;10605322;27;19919;-86
2023/08/15 16:20:12;;;;;;;11.25;6.13;;;;;;;;;;10609853;27;20032;-86
2023/08/15 16:25:15;;;;;;;12.10;6.00;;;;;;;;;;10600363;27;20073;-87
2023/08/15 16:30:19;;;;;;;8.30;4.05;;;;;;;;;;10594326;27;20270;-86
2023/08/15 16:35:21;;;;;;;7.75;4.25;;;;;;;;;;10602096;27;20081;-88
2023/08/15 16:40:24;;;;;;;12.75;6.32;;;;;;;;;;10582343;27;20122;-87
2023/08/15 16:45:28;;;;;;;8.88;4.43;;;;;;;;;;10605888;27;20519;-88
2023/08/15 16:50:31;;;;;;;11.60;5.35;;;;;;;;;;10602904;27;20348;-86
2023/08/15 16:55:34;;;;;;;11.80;6.05;;;;;;;;;;10603128;27;20118;-87
2023/08/15 17:00:38;;;;;;;8.82;4.35;;;;;;;;;;10613859;27;20059;-87
2023/08/15 17:05:41;;;;;;;12.35;5.93;;;;;;;;;;10601343;27;20088;-93
2023/08/15 17:10:52;;;;;;;9.77;4.93;;;;;;;;;;10604779;27;20594;-82
2023/08/15 17:15:59;;;;;;;14.00;6.53;;;;;;;;;;10599978;27;20039;-85
2023/08/15 17:21:03;;;;;;;10.30;6.18;;;;;;;;;;10571987;27;20093;-84
2023/08/15 17:26:10;;;;;;;7.57;3.70;;;;;;;;;;10589249;27;20125;-84
2023/08/15 17:31:32;;;;;;;12.88;6.38;;;;;;;;;;10575472;27;20047;-84
2023/08/15 17:36:39;;;;;;;12.05;5.47;;;;;;;;;;10597499;27;20531;-84
2023/08/15 17:41:46;;;;;;;9.93;5.50;;;;;;;;;;10569092;27;20067;-84
2023/08/15 17:47:01;;;;;;;8.45;4.88;;;;;;;;;;10592960;27;20078;-83
2023/08/15 17:52:07;;;;;;;6.63;3.90;;;;;;;;;;10583600;27;20080;-83
2023/08/15 17:57:19;;;;;;;11.25;5.38;;;;;;;;;;10589550;27;20112;-83
2023/08/15 18:02:30;;;;;;;11.20;5.63;;;;;;;;;;10612254;27;20110;-83
2023/08/15 18:07:37;;;;;;;17.27;6.60;;;;;;;;;;10594718;27;20039;-83
2023/08/15 18:12:42;;;;;;;7.85;4.10;;;;;;;;;;10592183;27;20046;-83
2023/08/15 18:17:48;;;;;;;6.68;3.83;;;;;;;;;;10592390;27;20498;-83
2023/08/15 18:22:52;;;;;;;6.43;3.22;;;;;;;;;;10595776;27;20104;-83
2023/08/15 18:27:59;;;;;;;7.70;3.92;;;;;;;;;;10601658;27;20111;-82
2023/08/15 18:33:09;;;;;;;6.95;3.90;;;;;;;;;;10604107;27;20761;-81
2023/08/15 18:38:23;;;;;;;7.65;3.90;;;;;;;;;;10596018;27;20043;-79
2023/08/15 18:43:58;;;;;;;10.48;4.30;;;;;;;;;;10621394;27;20061;-81
2023/08/15 18:49:06;;;;;;;3.42;2.42;;;;;;;;;;10608386;27;20039;-81
2023/08/15 18:54:10;;;;;;;11.63;5.38;;;;;;;;;;10625977;27;20036;-85
2023/08/15 18:59:23;;;;;;;8.05;4.70;;;;;;;;;;10617855;27;20075;-88
2023/08/15 19:04:49;;;;;;;9.10;4.75;;;;;;;;;;10641491;27;20328;-87
2023/08/15 19:09:55;;;;;;;8.47;4.90;;;;;;;;;;10630947;27;20070;-86
2023/08/15 19:15:02;;;;;;;8.20;4.32;;;;;;;;;;10612699;27;20051;-87
2023/08/15 19:20:09;;;;;;;7.70;3.35;;;;;;;;;;10602260;27;20089;-90
2023/08/15 19:25:15;;;;;;;12.20;5.18;;;;;;;;;;10618812;27;20042;-90
2023/08/15 19:30:26;;;;;;;6.00;3.63;;;;;;;;;;10635106;27;20050;-86
2023/08/15 19:35:39;;;;;;;6.47;3.47;;;;;;;;;;10610597;27;20113;-90
2023/08/15 19:40:44;;;;;;;6.32;3.22;;;;;;;;;;10570775;27;20079;-90
2023/08/15 19:45:48;;;;;;;11.10;3.95;;;;;;;;;;10603195;27;20040;-89
2023/08/15 19:50:53;;;;;;;6.07;3.33;;;;;;;;;;10601434;27;20066;-89
2023/08/15 19:56:03;;;;;;;10.02;4.30;;;;;;;;;;10600551;27;20458;-89
2023/08/15 20:01:09;;;;;;;7.95;4.13;;;;;;;;;;10602494;27;20027;-88
2023/08/15 20:06:25;;;;;;;9.07;3.50;;;;;;;;;;10589372;27;20149;-87
2023/08/15 20:11:30;;;;;;;7.70;4.20;;;;;;;;;;10591092;27;20425;-88
2023/08/15 20:16:54;;;;;;;5.85;3.03;;;;;;;;;;10576839;27;20050;-89
2023/08/15 20:22:05;;;;;;;2.95;1.98;;;;;;;;;;10583227;27;20046;-91
2023/08/15 20:27:18;;;;;;;6.90;3.20;;;;;;;;;;10590334;27;20053;-91
2023/08/15 20:32:26;;;;;;;7.32;3.63;;;;;;;;;;10591136;27;20048;-90
2023/08/15 20:37:36;;;;;;;8.50;3.88;;;;;;;;;;10578175;27;20123;-90
2023/08/15 20:42:43;;;;;;;6.97;3.63;;;;;;;;;;10606038;27;20130;-90
2023/08/15 20:47:51;;;;;;;6.97;3.78;;;;;;;;;;10607665;27;20078;-91
2023/08/15 20:53:21;;;;;;;8.25;4.00;;;;;;;;;;10608539;27;20525;-90
2023/08/15 20:58:29;;;;;;;5.85;3.20;;;;;;;;;;10610696;27;20047;-89
2023/08/15 21:03:39;;;;;;;6.55;3.60;;;;;;;;;;10610495;27;20099;-90
2023/08/15 21:08:47;;;;;;;8.27;4.30;;;;;;;;;;10599383;27;20051;-89
2023/08/15 21:14:00;;;;;;;7.93;4.38;;;;;;;;;;10617260;27;20090;-92
2023/08/15 21:19:05;;;;;;;8.60;3.50;;;;;;;;;;10627094;27;20072;-91
2023/08/15 21:24:22;;;;;;;5.93;4.05;;;;;;;;;;10603745;27;20047;-92
2023/08/15 21:29:32;;;;;;;9.52;3.72;;;;;;;;;;10601975;27;20158;-91
2023/08/15 21:34:37;;;;;;;9.93;4.40;;;;;;;;;;10591810;27;20050;-92
2023/08/15 21:39:40;;;;;;;8.93;4.68;;;;;;;;;;10591915;27;20365;-91
2023/08/15 21:44:46;;;;;;;6.57;4.05;;;;;;;;;;10609676;27;20043;-91
2023/08/15 21:49:50;;;;;;;10.70;6.00;;;;;;;;;;10594983;27;20062;-90
2023/08/15 21:54:56;;;;;;;9.18;5.32;;;;;;;;;;10591435;27;20062;-92
2023/08/15 22:00:06;;;;;;;9.95;4.55;;;;;;;;;;10611686;27;20035;-91
2023/08/15 22:05:11;;;;;;;6.93;4.30;;;;;;;;;;10617996;27;20104;-91
2023/08/15 22:10:15;;;;;;;9.93;4.65;;;;;;;;;;10633672;27;20110;-90
2023/08/15 22:15:20;;;;;;;12.27;4.78;;;;;;;;;;10606116;27;20043;-86
2023/08/15 22:20:24;;;;;;;6.65;4.35;;;;;;;;;;10593831;27;20044;-87
2023/08/15 22:25:31;;;;;;;8.95;4.68;;;;;;;;;;10601064;27;20069;-86
2023/08/15 22:30:46;;;;;;;8.13;3.95;;;;;;;;;;10605007;27;20039;-87
2023/08/15 22:35:59;;;;;;;7.38;4.18;;;;;;;;;;10608422;27;20057;-89
2023/08/15 22:41:04;;;;;;;6.88;3.65;;;;;;;;;;10595400;27;20047;-86
2023/08/15 22:46:18;;;;;;;10.88;4.93;;;;;;;;;;10594953;27;20042;-88
2023/08/15 22:51:25;;;;;;;7.28;4.50;;;;;;;;;;10603565;27;20412;-92
2023/08/15 22:56:37;;;;;;;11.02;4.57;;;;;;;;;;10599947;27;20529;-89
2023/08/15 23:01:45;;;;;;;10.63;5.00;;;;;;;;;;10580666;27;20058;-92
2023/08/15 23:06:49;;;;;;;10.95;4.82;;;;;;;;;;10601206;27;20088;-93
2023/08/15 23:11:58;;;;;;;9.75;4.70;;;;;;;;;;10584654;27;20040;-93
2023/08/15 23:17:09;;;;;;;11.82;4.65;;;;;;;;;;10588010;27;20046;-93
2023/08/15 23:22:18;;;;;;;8.15;3.50;;;;;;;;;;10610704;27;20039;-93
2023/08/15 23:27:24;;;;;;;6.95;2.65;;;;;;;;;;10593694;27;20064;-91
2023/08/15 23:32:38;;;;;;;8.90;5.07;;;;;;;;;;10583014;27;20076;-90
2023/08/15 23:37:58;;;;;;;15.23;4.97;;;;;;;;;;10575098;27;20155;-90
2023/08/15 23:43:03;;;;;;;10.02;4.97;;;;;;;;;;10601222;27;20118;-91
2023/08/15 23:48:13;;;;;;;7.45;4.50;;;;;;;;;;10585680;27;20087;-90
2023/08/15 23:53:19;;;;;;;7.80;4.70;;;;;;;;;;10599521;27;20499;-90
2023/08/15 23:58:34;;;;;;;8.55;4.53;;;;;;;;;;10598343;27;20055;-90
